KMSS

Massena International-Richards Field Airport

Massena, New York, USA
METAR KMSS 170153Z AUTO 29003KT 10SM CLR M12/M15 A3022 RMK AO2 SLP242 T11221150
Observed Flight Rules
Dec-17 @ 01:53 UTC (20 minutes ago) Visual Flight Rules
Wind Visibility Clouds
290° at 3 knots 10 miles
  • Clear skies
Temperatures Readings
Current -12°C / 10°F
Dewpoint -15°C / 5°F
Humidity 79%
Altimeter 30.22" Hg
Pressure 1024.2 hPa
Elevation 66
METAR KMSS 170153Z AUTO 29003KT 10SM CLR M12/M15 A3022 RMK AO2 SLP242 T11221150
Observed Flight Rules
Dec-17 @ 01:53 UTC
(20 minutes ago)
VFR
Wind Visibility
290° at 3 knots 10 miles
Clouds
  • Clear skies
Temperature Dewpoint
-12°C / 10°F -15°C / 5°F
Humidity Altimeter Pressure
79% 30.22" Hg 1024.2 hPa